Time;durP1;ratioP1;P1;durP2;ratioP2;P2;SDS_P1;SDS_P2;PMS_P1;PMS_P2;Temp;Humidity;BMP_temperature;BMP_pressure;BME280_temperature;BME280_humidity;BME280_pressure;Samples;Min_cycle;Max_cycle;Signal;HPM_P1;HPM_P2
2023/01/27 00:02:11;;;;;;;;;;;;;;;;;;8397363;27;27486;-77
2023/01/27 00:06:11;;;;;;;;;;;;;;;;;;8399061;27;28180;-77
2023/01/27 00:10:12;;;;;;;;;;;;;;;;;;8398794;27;28716;-79
2023/01/27 00:14:12;;;;;;;;;;;;;;;;;;8399534;27;29057;-78
2023/01/27 00:18:12;;;;;;;;;;;;;;;;;;8397948;27;28269;-78
2023/01/27 00:26:31;;;;;;;;;;;;;;;;;;8415648;27;27377;-78
2023/01/27 00:30:31;;;;;;;;;;;;;;;;;;8393515;27;29274;-78
2023/01/27 00:34:31;;;;;;;;;;;;;;;;;;8400240;27;28926;-78
2023/01/27 00:38:32;;;;;;;;;;;;;;;;;;8401643;27;27320;-77
2023/01/27 00:42:32;;;;;;;;;;;;;;;;;;8399443;27;27449;-78
2023/01/27 00:46:32;;;;;;;;;;;;;;;;;;8399996;27;28429;-77
2023/01/27 00:50:32;;;;;;;;;;;;;;;;;;8390572;27;28032;-77
2023/01/27 00:54:32;;;;;;;;;;;;;;;;;;8402670;27;27638;-78
2023/01/27 00:58:33;;;;;;;;;;;;;;;;;;8397870;27;27931;-77
2023/01/27 01:02:33;;;;;;;;;;;;;;;;;;8398601;27;27360;-78
2023/01/27 01:06:33;;;;;;;;;;;;;;;;;;8397821;27;28042;-78
2023/01/27 01:10:33;;;;;;;;;;;;;;;;;;8406408;27;27475;-77
2023/01/27 01:14:33;;;;;;;;;;;;;;;;;;8400798;27;27266;-77
2023/01/27 01:18:33;;;;;;;;;;;;;;;;;;8403099;27;27582;-78
2023/01/27 01:22:33;;;;;;;;;;;;;;;;;;8395644;27;28290;-77
2023/01/27 01:26:33;;;;;;;;;;;;;;;;;;8399152;27;29185;-78
2023/01/27 01:30:34;;;;;;;;;;;;;;;;;;8391861;27;28447;-79
2023/01/27 01:34:34;;;;;;;;;;;;;;;;;;8393782;27;28486;-78
2023/01/27 01:38:34;;;;;;;;;;;;;;;;;;8397926;27;28709;-77
2023/01/27 01:42:34;;;;;;;;;;;;;;;;;;8403691;27;28286;-78
2023/01/27 01:46:34;;;;;;;;;;;;;;;;;;8396245;27;27099;-79
2023/01/27 01:50:34;;;;;;;;;;;;;;;;;;8406279;27;27954;-78
2023/01/27 01:54:34;;;;;;;;;;;;;;;;;;8408558;27;27165;-79
2023/01/27 01:58:34;;;;;;;;;;;;;;;;;;8404227;27;28840;-77
2023/01/27 02:02:34;;;;;;;;;;;;;;;;;;8399297;27;27374;-78
2023/01/27 02:06:35;;;;;;;;;;;;;;;;;;8402118;27;27504;-76
2023/01/27 02:10:35;;;;;;;;;;;;;;;;;;8397219;27;27452;-78
2023/01/27 02:14:35;;;;;;;;;;;;;;;;;;8398419;27;29598;-77
2023/01/27 02:18:35;;;;;;;;;;;;;;;;;;8410272;27;28457;-78
2023/01/27 02:22:35;;;;;;;;;;;;;;;;;;8397098;27;27450;-78
2023/01/27 02:26:35;;;;;;;;;;;;;;;;;;8405121;27;28895;-78
2023/01/27 02:30:35;;;;;;;;;;;;;;;;;;8402362;27;29763;-78
2023/01/27 02:34:35;;;;;;;;;;;;;;;;;;8402490;27;28449;-78
2023/01/27 02:38:35;;;;;;;;;;;;;;;;;;8396695;27;28446;-78
2023/01/27 02:42:36;;;;;;;;;;;;;;;;;;8395275;27;28945;-77
2023/01/27 02:46:36;;;;;;;;;;;;;;;;;;8406912;27;28360;-77
2023/01/27 02:50:36;;;;;;;;;;;;;;;;;;8397488;27;27993;-78
2023/01/27 02:54:36;;;;;;;;;;;;;;;;;;8402255;27;27162;-78
2023/01/27 02:58:36;;;;;;;;;;;;;;;;;;8400606;27;27250;-78
2023/01/27 03:02:36;;;;;;;;;;;;;;;;;;8400386;27;27584;-78
2023/01/27 03:06:36;;;;;;;;;;;;;;;;;;8403139;27;28468;-77
2023/01/27 03:10:36;;;;;;;;;;;;;;;;;;8399127;27;28708;-76
2023/01/27 03:18:56;;;;;;;;;;;;;;;;;;8417370;27;27277;-78
2023/01/27 03:22:56;;;;;;;;;;;;;;;;;;8398198;27;27288;-79
2023/01/27 03:26:56;;;;;;;;;;;;;;;;;;8415942;27;28006;-78
2023/01/27 03:30:56;;;;;;;;;;;;;;;;;;8413627;27;27550;-78
2023/01/27 03:34:56;;;;;;;;;;;;;;;;;;8400970;27;28448;-79
2023/01/27 03:47:34;;;;;;;;;;;;;;;;;;8414576;27;27335;-77
2023/01/27 03:51:34;;;;;;;;;;;;;;;;;;8392149;27;29009;-77
2023/01/27 03:55:34;;;;;;;;;;;;;;;;;;8416491;27;28097;-78
2023/01/27 03:59:35;;;;;;;;;;;;;;;;;;8399798;27;29049;-77
2023/01/27 04:07:53;;;;;;;;;;;;;;;;;;8411724;27;27246;-77
2023/01/27 04:11:56;;;;;;;;;;;;;;;;;;8396095;27;47518;-77
2023/01/27 04:15:56;;;;;;;;;;;;;;;;;;8400998;27;28585;-77
2023/01/27 04:19:57;;;;;;;;;;;;;;;;;;8414865;27;27200;-79
2023/01/27 04:23:57;;;;;;;;;;;;;;;;;;8414554;27;27905;-76
2023/01/27 04:27:57;;;;;;;;;;;;;;;;;;8414584;27;28336;-78
2023/01/27 04:31:57;;;;;;;;;;;;;;;;;;8412116;27;27165;-77
2023/01/27 04:35:57;;;;;;;;;;;;;;;;;;8408379;27;27190;-77
2023/01/27 04:39:57;;;;;;;;;;;;;;;;;;8402235;27;28126;-77
2023/01/27 04:43:57;;;;;;;;;;;;;;;;;;8410196;27;27135;-79
2023/01/27 04:47:57;;;;;;;;;;;;;;;;;;8398625;27;29672;-78
2023/01/27 04:51:57;;;;;;;;;;;;;;;;;;8396565;27;28489;-78
2023/01/27 04:55:58;;;;;;;;;;;;;;;;;;8392156;27;28772;-77
2023/01/27 04:59:58;;;;;;;;;;;;;;;;;;8393604;27;28446;-78
2023/01/27 05:03:58;;;;;;;;;;;;;;;;;;8399343;27;28362;-77
2023/01/27 05:07:58;;;;;;;;;;;;;;;;;;8401209;27;28568;-77
2023/01/27 05:11:58;;;;;;;;;;;;;;;;;;8409217;27;28074;-77
2023/01/27 05:15:58;;;;;;;;;;;;;;;;;;8396685;27;28448;-78
2023/01/27 05:19:58;;;;;;;;;;;;;;;;;;8414671;27;28481;-76
2023/01/27 05:23:58;;;;;;;;;;;;;;;;;;8421883;27;27395;-77
2023/01/27 05:27:58;;;;;;;;;;;;;;;;;;8401332;27;28523;-78
2023/01/27 05:31:58;;;;;;;;;;;;;;;;;;8422859;27;27135;-78
2023/01/27 05:35:59;;;;;;;;;;;;;;;;;;8402013;27;28752;-77
2023/01/27 05:39:59;;;;;;;;;;;;;;;;;;8404163;27;28625;-78
2023/01/27 05:43:59;;;;;;;;;;;;;;;;;;8420632;27;28018;-78
2023/01/27 05:47:59;;;;;;;;;;;;;;;;;;8418158;27;27211;-78
2023/01/27 05:51:59;;;;;;;;;;;;;;;;;;8398053;27;29243;-78
2023/01/27 05:55:59;;;;;;;;;;;;;;;;;;8415331;27;27952;-78
2023/01/27 05:59:59;;;;;;;;;;;;;;;;;;8404070;27;29460;-77
2023/01/27 06:03:59;;;;;;;;;;;;;;;;;;8395694;27;28903;-78
2023/01/27 06:07:59;;;;;;;;;;;;;;;;;;8413239;27;27465;-78
2023/01/27 06:11:59;;;;;;;;;;;;;;;;;;8416233;27;27653;-77
2023/01/27 06:16:00;;;;;;;;;;;;;;;;;;8406569;27;28564;-76
2023/01/27 06:20:00;;;;;;;;;;;;;;;;;;8414869;27;27227;-78
2023/01/27 06:24:00;;;;;;;;;;;;;;;;;;8397438;27;28581;-77
2023/01/27 06:28:00;;;;;;;;;;;;;;;;;;8413518;27;28221;-77
2023/01/27 06:32:00;;;;;;;;;;;;;;;;;;8415267;27;27404;-77
2023/01/27 06:36:00;;;;;;;;;;;;;;;;;;8416462;27;27151;-77
2023/01/27 06:40:00;;;;;;;;;;;;;;;;;;8395314;27;28970;-77
2023/01/27 06:44:00;;;;;;;;;;;;;;;;;;8395379;27;28517;-77
2023/01/27 06:48:00;;;;;;;;;;;;;;;;;;8395813;27;28424;-76
2023/01/27 06:52:00;;;;;;;;;;;;;;;;;;8408544;27;27414;-77
2023/01/27 06:56:01;;;;;;;;;;;;;;;;;;8395571;27;29670;-77
2023/01/27 07:00:01;;;;;;;;;;;;;;;;;;8415769;27;27156;-77
2023/01/27 07:04:01;;;;;;;;;;;;;;;;;;8420371;27;27231;-79
2023/01/27 07:08:01;;;;;;;;;;;;;;;;;;8417809;27;27639;-77
2023/01/27 07:12:01;;;;;;;;;;;;;;;;;;8417461;27;27270;-78
2023/01/27 07:16:01;;;;;;;;;;;;;;;;;;8413864;27;27962;-78
2023/01/27 07:20:01;;;;;;;;;;;;;;;;;;8400860;27;28196;-76
2023/01/27 07:24:02;;;;;;;;;;;;;;;;;;8397709;27;28702;-78
2023/01/27 07:28:02;;;;;;;;;;;;;;;;;;8403672;27;28424;-78
2023/01/27 07:32:02;;;;;;;;;;;;;;;;;;8415977;27;27690;-78
2023/01/27 07:36:02;;;;;;;;;;;;;;;;;;8396763;27;28311;-78
2023/01/27 07:40:02;;;;;;;;;;;;;;;;;;8393345;27;28152;-79
2023/01/27 07:44:02;;;;;;;;;;;;;;;;;;8397714;27;28920;-77
2023/01/27 07:48:02;;;;;;;;;;;;;;;;;;8416830;27;27526;-78
2023/01/27 07:52:03;;;;;;;;;;;;;;;;;;8413626;27;27140;-78
2023/01/27 07:56:03;;;;;;;;;;;;;;;;;;8413943;27;28174;-78
2023/01/27 08:00:04;;;;;;;;;;;;;;;;;;8415689;27;27570;-78
2023/01/27 08:04:04;;;;;;;;;;;;;;;;;;8411835;27;27791;-77
2023/01/27 08:08:04;;;;;;;;;;;;;;;;;;8397004;27;28779;-76
2023/01/27 08:12:04;;;;;;;;;;;;;;;;;;8403032;27;28508;-77
2023/01/27 08:16:04;;;;;;;;;;;;;;;;;;8396154;27;30183;-77
2023/01/27 08:20:05;;;;;;;;;;;;;;;;;;8395074;27;29077;-78
2023/01/27 08:24:05;;;;;;;;;;;;;;;;;;8398517;27;29738;-77
2023/01/27 08:28:05;;;;;;;;;;;;;;;;;;8399505;27;28480;-78
2023/01/27 08:32:05;;;;;;;;;;;;;;;;;;8402136;27;28338;-78
2023/01/27 08:36:05;;;;;;;;;;;;;;;;;;8416100;27;27538;-79
2023/01/27 08:40:05;;;;;;;;;;;;;;;;;;8421467;27;27671;-77
2023/01/27 08:44:05;;;;;;;;;;;;;;;;;;8395015;27;28790;-77
2023/01/27 08:48:05;;;;;;;;;;;;;;;;;;8411607;27;27687;-77
2023/01/27 08:52:06;;;;;;;;;;;;;;;;;;8392242;27;28711;-77
2023/01/27 08:56:06;;;;;;;;;;;;;;;;;;8406918;27;29049;-77
2023/01/27 09:00:06;;;;;;;;;;;;;;;;;;8401536;27;30231;-78
2023/01/27 09:04:06;;;;;;;;;;;;;;;;;;8398559;27;29026;-76
2023/01/27 09:08:06;;;;;;;;;;;;;;;;;;8415847;27;27472;-78
2023/01/27 09:12:06;;;;;;;;;;;;;;;;;;8415473;27;27271;-79
2023/01/27 09:16:06;;;;;;;;;;;;;;;;;;8397266;27;29576;-79
2023/01/27 09:20:07;;;;;;;;;;;;;;;;;;8417035;27;27103;-78
2023/01/27 09:24:07;;;;;;;;;;;;;;;;;;8402394;27;28525;-78
2023/01/27 09:28:15;;;;;;;;;;;;;;;;;;8422166;27;27607;-79
2023/01/27 09:32:15;;;;;;;;;;;;;;;;;;8412572;27;27131;-78
2023/01/27 09:36:15;;;;;;;;;;;;;;;;;;8399444;27;28547;-77
2023/01/27 09:40:15;;;;;;;;;;;;;;;;;;8398414;27;28450;-80
2023/01/27 09:44:15;;;;;;;;;;;;;;;;;;8415158;27;27614;-80
2023/01/27 09:48:16;;;;;;;;;;;;;;;;;;8418001;27;27261;-79
2023/01/27 09:52:16;;;;;;;;;;;;;;;;;;8417904;27;27231;-78
2023/01/27 09:56:18;;;;;;;;;;;;;;;;;;8399523;27;28570;-78
2023/01/27 10:00:18;;;;;;;;;;;;;;;;;;8407158;27;27075;-77
2023/01/27 10:04:18;;;;;;;;;;;;;;;;;;8413148;27;27948;-77
2023/01/27 10:08:18;;;;;;;;;;;;;;;;;;8420180;27;27352;-78
2023/01/27 10:12:18;;;;;;;;;;;;;;;;;;8400636;27;28288;-79
2023/01/27 10:16:19;;;;;;;;;;;;;;;;;;8405699;27;28546;-79
2023/01/27 10:20:19;;;;;;;;;;;;;;;;;;8395862;27;28337;-78
2023/01/27 10:24:19;;;;;;;;;;;;;;;;;;8401650;27;28723;-78
2023/01/27 10:28:19;;;;;;;;;;;;;;;;;;8418346;27;27259;-77
2023/01/27 10:32:19;;;;;;;;;;;;;;;;;;8419780;27;27311;-78
2023/01/27 10:36:19;;;;;;;;;;;;;;;;;;8399544;27;28655;-78
2023/01/27 10:40:19;;;;;;;;;;;;;;;;;;8409580;27;28439;-78
2023/01/27 10:44:20;;;;;;;;;;;;;;;;;;8420795;27;27312;-78
2023/01/27 10:48:21;;;;;;;;;;;;;;;;;;8424248;27;27688;-79
2023/01/27 10:52:21;;;;;;;;;;;;;;;;;;8399358;27;29205;-78
2023/01/27 10:56:24;;;;;;;;;;;;;;;;;;8419551;27;28180;-78
2023/01/27 11:00:24;;;;;;;;;;;;;;;;;;8405460;27;28964;-78
2023/01/27 11:04:24;;;;;;;;;;;;;;;;;;8417815;27;27292;-76
2023/01/27 11:08:24;;;;;;;;;;;;;;;;;;8401727;27;28570;-78
2023/01/27 11:12:24;;;;;;;;;;;;;;;;;;8418818;27;27536;-78
2023/01/27 11:16:24;;;;;;;;;;;;;;;;;;8399010;27;29514;-78
2023/01/27 11:20:24;;;;;;;;;;;;;;;;;;8403880;27;28367;-77
2023/01/27 11:24:25;;;;;;;;;;;;;;;;;;8407734;27;28273;-79
2023/01/27 11:28:25;;;;;;;;;;;;;;;;;;8406948;27;28131;-77
2023/01/27 11:32:25;;;;;;;;;;;;;;;;;;8406048;27;29598;-79
2023/01/27 11:36:25;;;;;;;;;;;;;;;;;;8410249;27;27168;-78
2023/01/27 11:40:25;;;;;;;;;;;;;;;;;;8410721;27;27506;-78
2023/01/27 11:44:25;;;;;;;;;;;;;;;;;;8417759;27;27231;-77
2023/01/27 11:48:25;;;;;;;;;;;;;;;;;;8403666;27;28595;-78
2023/01/27 11:52:26;;;;;;;;;;;;;;;;;;8415739;27;27256;-78
2023/01/27 11:56:26;;;;;;;;;;;;;;;;;;8406284;27;28920;-77
2023/01/27 12:00:26;;;;;;;;;;;;;;;;;;8411036;27;27595;-78
2023/01/27 12:04:26;;;;;;;;;;;;;;;;;;8400536;27;29076;-78
2023/01/27 12:08:26;;;;;;;;;;;;;;;;;;8401267;27;28921;-78
2023/01/27 12:12:26;;;;;;;;;;;;;;;;;;8401959;27;28536;-78
2023/01/27 12:16:27;;;;;;;;;;;;;;;;;;8404890;27;29662;-79
2023/01/27 12:20:27;;;;;;;;;;;;;;;;;;8415650;27;27302;-79
2023/01/27 12:24:27;;;;;;;;;;;;;;;;;;8416405;27;27170;-78
2023/01/27 12:28:27;;;;;;;;;;;;;;;;;;8405048;27;28769;-78
2023/01/27 12:32:27;;;;;;;;;;;;;;;;;;8403691;27;28526;-78
2023/01/27 12:36:27;;;;;;;;;;;;;;;;;;8409225;27;28162;-78
2023/01/27 12:40:28;;;;;;;;;;;;;;;;;;8416856;27;28072;-78
2023/01/27 12:44:28;;;;;;;;;;;;;;;;;;8420448;27;27224;-78
2023/01/27 12:48:28;;;;;;;;;;;;;;;;;;8421083;27;27568;-78
2023/01/27 12:52:28;;;;;;;;;;;;;;;;;;8420865;27;27204;-79
2023/01/27 12:56:28;;;;;;;;;;;;;;;;;;8413091;27;27420;-79
2023/01/27 13:00:28;;;;;;;;;;;;;;;;;;8416705;27;27642;-79
2023/01/27 13:04:28;;;;;;;;;;;;;;;;;;8407809;27;28809;-78
2023/01/27 13:08:28;;;;;;;;;;;;;;;;;;8415631;27;27846;-79
2023/01/27 13:12:28;;;;;;;;;;;;;;;;;;8404764;27;28320;-78
2023/01/27 13:16:28;;;;;;;;;;;;;;;;;;8399257;27;28689;-78
2023/01/27 13:20:29;;;;;;;;;;;;;;;;;;8401772;27;28886;-78
2023/01/27 13:24:29;;;;;;;;;;;;;;;;;;8415915;27;27592;-78
2023/01/27 13:28:29;;;;;;;;;;;;;;;;;;8425647;27;27349;-78
2023/01/27 13:32:29;;;;;;;;;;;;;;;;;;8410219;27;28267;-78
2023/01/27 13:36:29;;;;;;;;;;;;;;;;;;8421013;27;27883;-78
2023/01/27 13:40:29;;;;;;;;;;;;;;;;;;8424032;27;27151;-77
2023/01/27 13:44:29;;;;;;;;;;;;;;;;;;8427790;27;27449;-78
2023/01/27 13:48:29;;;;;;;;;;;;;;;;;;8424406;27;27208;-78
2023/01/27 13:52:29;;;;;;;;;;;;;;;;;;8411440;27;28471;-78
2023/01/27 13:56:30;;;;;;;;;;;;;;;;;;8409210;27;29049;-77
2023/01/27 14:00:30;;;;;;;;;;;;;;;;;;8421746;27;27380;-79
2023/01/27 14:04:30;;;;;;;;;;;;;;;;;;8408320;27;28546;-78
2023/01/27 14:08:30;;;;;;;;;;;;;;;;;;8426818;27;27293;-78
2023/01/27 14:12:31;;;;;;;;;;;;;;;;;;8413916;27;28479;-78
2023/01/27 14:16:31;;;;;;;;;;;;;;;;;;8398845;27;29498;-78
2023/01/27 14:20:31;;;;;;;;;;;;;;;;;;8398464;27;28668;-78
2023/01/27 14:24:31;;;;;;;;;;;;;;;;;;8414029;27;27286;-79
2023/01/27 14:28:31;;;;;;;;;;;;;;;;;;8409036;27;27102;-78
2023/01/27 14:32:31;;;;;;;;;;;;;;;;;;8397170;27;28404;-78
2023/01/27 14:36:31;;;;;;;;;;;;;;;;;;8412998;27;27335;-78
2023/01/27 14:40:31;;;;;;;;;;;;;;;;;;8414614;27;27589;-79
2023/01/27 14:44:31;;;;;;;;;;;;;;;;;;8412869;27;27247;-78
2023/01/27 14:48:32;;;;;;;;;;;;;;;;;;8387150;27;28766;-79
2023/01/27 14:52:32;;;;;;;;;;;;;;;;;;8401312;27;28095;-78
2023/01/27 14:56:32;;;;;;;;;;;;;;;;;;8408980;27;27485;-80
2023/01/27 15:00:32;;;;;;;;;;;;;;;;;;8399023;27;28404;-78
2023/01/27 15:04:32;;;;;;;;;;;;;;;;;;8418344;27;29389;-78
2023/01/27 15:08:32;;;;;;;;;;;;;;;;;;8397642;27;28646;-80
2023/01/27 15:12:32;;;;;;;;;;;;;;;;;;8421188;27;27123;-79
2023/01/27 15:16:32;;;;;;;;;;;;;;;;;;8405581;27;27380;-78
2023/01/27 15:20:32;;;;;;;;;;;;;;;;;;8398290;27;28434;-81
2023/01/27 15:24:32;;;;;;;;;;;;;;;;;;8403045;27;28600;-80
2023/01/27 15:28:34;;;;;;;;;;;;;;;;;;8411088;27;27421;-79
2023/01/27 15:32:34;;;;;;;;;;;;;;;;;;8394506;27;28880;-78
2023/01/27 15:36:35;;;;;;;;;;;;;;;;;;8392822;27;29621;-79
2023/01/27 15:40:35;;;;;;;;;;;;;;;;;;8395055;27;29993;-79
2023/01/27 15:44:35;;;;;;;;;;;;;;;;;;8414285;27;27501;-80
2023/01/27 15:48:35;;;;;;;;;;;;;;;;;;8397854;27;29542;-80
2023/01/27 15:52:35;;;;;;;;;;;;;;;;;;8414907;27;27289;-80
2023/01/27 15:56:35;;;;;;;;;;;;;;;;;;8412823;27;27208;-81
2023/01/27 16:00:36;;;;;;;;;;;;;;;;;;8392989;27;28173;-82
2023/01/27 16:04:36;;;;;;;;;;;;;;;;;;8396009;27;28562;-82
2023/01/27 16:08:37;;;;;;;;;;;;;;;;;;8397981;27;28542;-81
2023/01/27 16:12:37;;;;;;;;;;;;;;;;;;8393957;27;29741;-80
2023/01/27 16:16:37;;;;;;;;;;;;;;;;;;8417974;27;27627;-79
2023/01/27 16:20:37;;;;;;;;;;;;;;;;;;8413696;27;27870;-79
2023/01/27 16:24:37;;;;;;;;;;;;;;;;;;8415927;27;27609;-79
2023/01/27 16:28:37;;;;;;;;;;;;;;;;;;8393382;27;28147;-80
2023/01/27 16:32:37;;;;;;;;;;;;;;;;;;8403719;27;28697;-79
2023/01/27 16:36:37;;;;;;;;;;;;;;;;;;8403163;27;28431;-79
2023/01/27 16:40:37;;;;;;;;;;;;;;;;;;8397424;27;28196;-78
2023/01/27 16:44:37;;;;;;;;;;;;;;;;;;8390783;27;29449;-77
2023/01/27 16:48:37;;;;;;;;;;;;;;;;;;8404855;27;27524;-78
2023/01/27 16:52:37;;;;;;;;;;;;;;;;;;8387261;27;28223;-79
2023/01/27 16:56:39;;;;;;;;;;;;;;;;;;8406858;27;28395;-79
2023/01/27 17:00:39;;;;;;;;;;;;;;;;;;8413633;27;27246;-77
2023/01/27 17:04:41;;;;;;;;;;;;;;;;;;8417880;27;27481;-78
2023/01/27 17:08:41;;;;;;;;;;;;;;;;;;8403751;27;28781;-78
2023/01/27 17:12:43;;;;;;;;;;;;;;;;;;8395645;27;28480;-76
2023/01/27 17:16:43;;;;;;;;;;;;;;;;;;8409864;27;27614;-78
2023/01/27 17:20:43;;;;;;;;;;;;;;;;;;8390767;27;28470;-79
2023/01/27 17:24:43;;;;;;;;;;;;;;;;;;8408569;27;27445;-78
2023/01/27 17:28:43;;;;;;;;;;;;;;;;;;8413576;27;28230;-79
2023/01/27 17:32:43;;;;;;;;;;;;;;;;;;8399160;27;30184;-79
2023/01/27 17:36:43;;;;;;;;;;;;;;;;;;8406783;27;27418;-79
2023/01/27 17:40:44;;;;;;;;;;;;;;;;;;8388215;27;29151;-79
2023/01/27 17:44:44;;;;;;;;;;;;;;;;;;8386942;27;28693;-78
2023/01/27 17:48:44;;;;;;;;;;;;;;;;;;8394453;27;29985;-78
2023/01/27 17:52:44;;;;;;;;;;;;;;;;;;8396500;27;28702;-78
2023/01/27 17:56:44;;;;;;;;;;;;;;;;;;8401725;27;27519;-77
2023/01/27 18:00:44;;;;;;;;;;;;;;;;;;8400375;27;28581;-77
2023/01/27 18:04:47;;;;;;;;;;;;;;;;;;8395407;27;29595;-78
2023/01/27 18:08:47;;;;;;;;;;;;;;;;;;8391713;27;28681;-78
2023/01/27 18:12:47;;;;;;;;;;;;;;;;;;8391658;27;28511;-80
2023/01/27 18:16:47;;;;;;;;;;;;;;;;;;8404225;27;28359;-80
2023/01/27 18:20:47;;;;;;;;;;;;;;;;;;8388016;27;28792;-81
2023/01/27 18:24:48;;;;;;;;;;;;;;;;;;8397681;27;29056;-79
2023/01/27 18:28:48;;;;;;;;;;;;;;;;;;8401541;27;28516;-80
2023/01/27 18:32:48;;;;;;;;;;;;;;;;;;8408707;27;27523;-80
2023/01/27 18:36:49;;;;;;;;;;;;;;;;;;8420957;27;27301;-80
2023/01/27 18:40:49;;;;;;;;;;;;;;;;;;8400076;27;29418;-80
2023/01/27 18:44:49;;;;;;;;;;;;;;;;;;8408541;27;28510;-81
2023/01/27 18:48:49;;;;;;;;;;;;;;;;;;8396920;27;28498;-80
2023/01/27 18:52:49;;;;;;;;;;;;;;;;;;8417675;27;27320;-80
2023/01/27 18:56:49;;;;;;;;;;;;;;;;;;8399510;27;28582;-80
2023/01/27 19:00:49;;;;;;;;;;;;;;;;;;8407258;27;28890;-79
2023/01/27 19:04:49;;;;;;;;;;;;;;;;;;8414430;27;28291;-80
2023/01/27 19:08:50;;;;;;;;;;;;;;;;;;8394807;27;28432;-78
2023/01/27 19:12:50;;;;;;;;;;;;;;;;;;8412231;27;27529;-81
2023/01/27 19:16:51;;;;;;;;;;;;;;;;;;8422321;27;27908;-80
2023/01/27 19:20:51;;;;;;;;;;;;;;;;;;8421057;27;27278;-79
2023/01/27 19:24:51;;;;;;;;;;;;;;;;;;8411553;27;28012;-79
2023/01/27 19:28:51;;;;;;;;;;;;;;;;;;8407061;27;28435;-81
2023/01/27 19:32:51;;;;;;;;;;;;;;;;;;8422849;27;27849;-79
2023/01/27 19:36:51;;;;;;;;;;;;;;;;;;8422580;27;28202;-80
2023/01/27 19:40:51;;;;;;;;;;;;;;;;;;8400780;27;29665;-80
2023/01/27 19:44:51;;;;;;;;;;;;;;;;;;8410810;27;27605;-79
2023/01/27 19:48:52;;;;;;;;;;;;;;;;;;8412834;27;28770;-79
2023/01/27 19:52:52;;;;;;;;;;;;;;;;;;8388549;27;28837;-81
2023/01/27 19:56:52;;;;;;;;;;;;;;;;;;8399161;27;29179;-79
2023/01/27 20:00:52;;;;;;;;;;;;;;;;;;8407894;27;28625;-82
2023/01/27 20:04:52;;;;;;;;;;;;;;;;;;8411079;27;27419;-80
2023/01/27 20:08:55;;;;;;;;;;;;;;;;;;8410526;27;27410;-79
2023/01/27 20:12:55;;;;;;;;;;;;;;;;;;8406293;27;28572;-80
2023/01/27 20:16:57;;;;;;;;;;;;;;;;;;8411949;27;27551;-80
2023/01/27 20:20:57;;;;;;;;;;;;;;;;;;8413085;27;27763;-79
2023/01/27 20:24:57;;;;;;;;;;;;;;;;;;8414061;27;27572;-79
2023/01/27 20:28:57;;;;;;;;;;;;;;;;;;8402650;27;29155;-80
2023/01/27 20:32:57;;;;;;;;;;;;;;;;;;8416353;27;27487;-78
2023/01/27 20:36:57;;;;;;;;;;;;;;;;;;8363831;27;28651;-79
2023/01/27 20:40:57;;;;;;;;;;;;;;;;;;8420939;27;27535;-77
2023/01/27 20:44:58;;;;;;;;;;;;;;;;;;8402092;27;29585;-76
2023/01/27 20:48:58;;;;;;;;;;;;;;;;;;8369454;27;28807;-78
2023/01/27 20:53:03;;;;;;;;;;;;;;;;;;8276408;27;28078;-78
2023/01/27 20:57:03;;;;;;;;;;;;;;;;;;8327872;27;28687;-79
2023/01/27 21:01:03;;;;;;;;;;;;;;;;;;8275566;27;28000;-78
2023/01/27 21:05:03;;;;;;;;;;;;;;;;;;8256169;27;28566;-79
2023/01/27 21:09:03;;;;;;;;;;;;;;;;;;8344675;27;28133;-78
2023/01/27 21:13:03;;;;;;;;;;;;;;;;;;8324688;27;28086;-79
2023/01/27 21:17:03;;;;;;;;;;;;;;;;;;8327039;27;28535;-80
2023/01/27 21:21:04;;;;;;;;;;;;;;;;;;8373147;27;28828;-78
2023/01/27 21:25:04;;;;;;;;;;;;;;;;;;8354090;27;28463;-77
2023/01/27 21:29:04;;;;;;;;;;;;;;;;;;8286755;27;29089;-78
2023/01/27 21:33:04;;;;;;;;;;;;;;;;;;8317150;27;28125;-82
2023/01/27 21:37:04;;;;;;;;;;;;;;;;;;8280567;27;30716;-77
2023/01/27 21:41:04;;;;;;;;;;;;;;;;;;8273761;27;28819;-79
2023/01/27 21:45:14;;;;;;;;;;;;;;;;;;8323865;27;28588;-78
2023/01/27 21:49:14;;;;;;;;;;;;;;;;;;8261241;27;29100;-78
2023/01/27 21:53:14;;;;;;;;;;;;;;;;;;8268248;27;29741;-79
2023/01/27 21:57:14;;;;;;;;;;;;;;;;;;8326410;27;28639;-81
2023/01/27 22:01:14;;;;;;;;;;;;;;;;;;8294887;27;28088;-82
2023/01/27 22:05:14;;;;;;;;;;;;;;;;;;8276875;27;28930;-81
2023/01/27 22:09:14;;;;;;;;;;;;;;;;;;8317850;27;28425;-80
2023/01/27 22:13:15;;;;;;;;;;;;;;;;;;8293640;27;28396;-79
2023/01/27 22:17:15;;;;;;;;;;;;;;;;;;8305577;27;29769;-79
2023/01/27 22:21:15;;;;;;;;;;;;;;;;;;8339844;27;28722;-80
2023/01/27 22:25:15;;;;;;;;;;;;;;;;;;8288914;27;28939;-81
2023/01/27 22:29:15;;;;;;;;;;;;;;;;;;8314157;27;29781;-80
2023/01/27 22:33:15;;;;;;;;;;;;;;;;;;8399993;27;28720;-80
2023/01/27 22:37:15;;;;;;;;;;;;;;;;;;8402140;27;28547;-80
2023/01/27 22:41:15;;;;;;;;;;;;;;;;;;8421014;27;27324;-79
2023/01/27 22:45:15;;;;;;;;;;;;;;;;;;8419538;27;27800;-79
2023/01/27 22:49:15;;;;;;;;;;;;;;;;;;8403934;27;28551;-78
2023/01/27 22:53:16;;;;;;;;;;;;;;;;;;8418657;27;27445;-78
2023/01/27 22:57:16;;;;;;;;;;;;;;;;;;8418164;27;27167;-78
2023/01/27 23:01:16;;;;;;;;;;;;;;;;;;8404893;27;28180;-78
2023/01/27 23:05:16;;;;;;;;;;;;;;;;;;8398628;27;28829;-77
2023/01/27 23:09:16;;;;;;;;;;;;;;;;;;8399660;27;28318;-80
2023/01/27 23:13:16;;;;;;;;;;;;;;;;;;8417042;27;27425;-80
2023/01/27 23:17:16;;;;;;;;;;;;;;;;;;8419784;27;27404;-81
2023/01/27 23:21:16;;;;;;;;;;;;;;;;;;8401031;27;28157;-82
2023/01/27 23:25:16;;;;;;;;;;;;;;;;;;8417156;27;27321;-79
2023/01/27 23:29:16;;;;;;;;;;;;;;;;;;8400295;27;28477;-80
2023/01/27 23:33:16;;;;;;;;;;;;;;;;;;8422395;27;27142;-78
2023/01/27 23:37:16;;;;;;;;;;;;;;;;;;8421545;27;27274;-80
2023/01/27 23:41:17;;;;;;;;;;;;;;;;;;8407647;27;28466;-78
2023/01/27 23:45:17;;;;;;;;;;;;;;;;;;8425154;27;27341;-81
2023/01/27 23:49:17;;;;;;;;;;;;;;;;;;8397696;27;29730;-78
2023/01/27 23:53:18;;;;;;;;;;;;;;;;;;8406326;27;28468;-78
2023/01/27 23:57:18;;;;;;;;;;;;;;;;;;8398514;27;29139;-79
